Grizzly Air Cargo 5150


PADK
Adak Airport
Adak Island, Alaska, US
PASY
Eareckson Air Station
Shemya, Alaska, US

Activity Log

Date Flight Route Aircraft Duration
08/26/2019 GRZ522 ADK J115 SYA B722 1h 01m
06/28/2019 GRZ522 ADK J115 SYA B722 1h 12m
06/28/2019 GRZ522 ADK J115 SYA B722 1h 07m
03/28/2019 GRZ522 ADK J115 SYA B722 1h 21m
03/13/2019 GRZ522 ADK J115 SYA B722 1h 12m

Route Details

Aircraft Information
Primary: Boeing 727-200F
Backup: Boeing 737-800BCF
Route Data
Distance: 344nm
Sched. Duration: 1h 00m
Avg. Duration: 1h 10m (+11m)
Times Flown: 5
Recm'd Route: ADK J115 SYA
Planned Altitude: 32,000ft
Origin Wx: PADK 210756Z AUTO 32005KT 10SM FEW042 OVC085 A2990 RMK AO2 SLPNO FZRANO $
Dest. Wx: PASY 210755Z 00000KT 7SM SCT021 BKN045 M05/M06 A2981 RMK AO2A SLP097 T10461058 RVRNO FZRANO PNO $
Notes: USTRANSCOM CONTRACT FLIGHT

Financial History
Total Freight: 173,682lbs
Average Load: 34,736lbs/flt
Fuel Used: 41,076lbs
Avg. Fuel Used: 8,215lbs/flt
Fuel Expense: $37,790
Avg. Fuel Expense: $7,558
Avg. Fuel Cost: $0.92/lbs
Total Gross Income: $257,049
Pilot Pay: $1,145
Total Expenses: $28,021
Total Revenue: $189,828
Average Revenue: $51,409.87